Time;durP1;ratioP1;P1;durP2;ratioP2;P2;SDS_P1;SDS_P2;PMS_P1;PMS_P2;Temp;Humidity;BMP_temperature;BMP_pressure;BME280_temperature;BME280_humidity;BME280_pressure;Samples;Min_cycle;Max_cycle;Signal;HPM_P1;HPM_P2
2022/11/26 00:01:47;;;;;;;39.00;16.87;;;5.50;99.90;;;;;;4120250;28;20519;-76
2022/11/26 00:03:51;;;;;;;31.57;15.27;;;5.50;99.90;;;;;;4111481;28;20481;-76
2022/11/26 00:05:56;;;;;;;36.90;16.90;;;5.50;99.90;;;;;;4121058;28;20465;-76
2022/11/26 00:08:00;;;;;;;34.23;16.63;;;5.50;99.90;;;;;;4119133;28;20449;-75
2022/11/26 00:10:08;;;;;;;34.67;16.73;;;5.50;99.90;;;;;;4101601;28;20490;-75
2022/11/26 00:12:17;;;;;;;32.10;15.90;;;5.50;99.90;;;;;;4107894;28;20512;-76
2022/11/26 00:14:19;;;;;;;43.80;17.47;;;5.50;99.90;;;;;;4120501;28;20476;-75
2022/11/26 00:16:21;;;;;;;31.27;16.33;;;5.50;99.90;;;;;;4120881;28;20493;-75
2022/11/26 00:18:25;;;;;;;37.03;16.20;;;5.50;99.90;;;;;;4118169;28;20460;-75
2022/11/26 00:20:33;;;;;;;30.17;15.80;;;5.50;99.90;;;;;;4118887;28;20507;-75
2022/11/26 00:22:41;;;;;;;37.57;16.57;;;5.50;99.90;;;;;;4117476;28;20506;-76
2022/11/26 00:24:43;;;;;;;34.47;16.20;;;5.50;99.90;;;;;;4123880;28;20468;-76
2022/11/26 00:26:45;;;;;;;31.20;16.00;;;5.50;99.90;;;;;;4112526;28;20508;-76
2022/11/26 00:28:52;;;;;;;37.53;15.63;;;5.50;99.90;;;;;;4120531;28;20464;-75
2022/11/26 00:30:56;;;;;;;37.03;16.10;;;5.50;99.90;;;;;;4115540;28;20538;-75
2022/11/26 00:32:58;;;;;;;31.63;15.80;;;5.50;99.90;;;;;;4118374;28;20560;-76
2022/11/26 00:35:00;;;;;;;31.13;15.90;;;5.50;99.90;;;;;;4120096;28;20488;-75
2022/11/26 00:37:02;;;;;;;41.37;18.07;;;5.50;99.90;;;;;;4115451;28;20493;-75
2022/11/26 00:39:07;;;;;;;30.83;16.40;;;5.50;99.90;;;;;;4099901;28;20461;-76
2022/11/26 00:41:14;;;;;;;36.60;17.47;;;5.50;99.90;;;;;;4116030;28;20496;-75
2022/11/26 00:43:17;;;;;;;35.23;17.03;;;5.50;99.90;;;;;;4122191;28;20562;-75
2022/11/26 00:45:23;;;;;;;41.27;18.97;;;5.60;99.90;;;;;;4123599;28;21012;-75
2022/11/26 00:47:24;;;;;;;42.63;18.33;;;5.50;99.90;;;;;;4102388;28;20833;-75
2022/11/26 00:49:27;;;;;;;35.50;17.87;;;5.60;99.90;;;;;;4121718;28;20464;-75
2022/11/26 00:51:29;;;;;;;36.53;18.70;;;5.60;99.90;;;;;;4123247;28;20460;-75
2022/11/26 00:53:31;;;;;;;50.93;19.70;;;5.60;99.90;;;;;;4122984;28;20494;-75
2022/11/26 00:55:36;;;;;;;41.60;19.23;;;5.60;99.90;;;;;;4125446;28;20985;-76
2022/11/26 00:57:38;;;;;;;47.77;20.40;;;5.60;99.90;;;;;;4119618;28;20908;-76
2022/11/26 00:59:40;;;;;;;42.63;19.63;;;5.60;99.90;;;;;;4123498;28;20500;-76
2022/11/26 01:01:45;;;;;;;44.87;20.77;;;5.60;99.90;;;;;;4123115;28;20839;-76
2022/11/26 01:03:50;;;;;;;51.40;21.67;;;5.60;99.90;;;;;;4119896;28;20481;-76
2022/11/26 01:05:54;;;;;;;55.20;23.37;;;5.60;99.90;;;;;;4126206;28;20461;-76
2022/11/26 01:07:59;;;;;;;51.20;23.30;;;5.60;99.90;;;;;;4123367;28;20519;-76
2022/11/26 01:10:01;;;;;;;53.63;24.23;;;5.60;99.90;;;;;;4125580;28;20448;-77
2022/11/26 01:12:03;;;;;;;52.03;23.83;;;5.70;99.90;;;;;;4110135;28;20484;-75
2022/11/26 01:14:06;;;;;;;53.50;23.93;;;5.60;99.90;;;;;;4122043;28;20516;-76
2022/11/26 01:16:19;;;;;;;59.87;24.40;;;5.70;99.90;;;;;;4105590;28;20473;-76
2022/11/26 01:18:24;;;;;;;49.23;23.23;;;5.70;99.90;;;;;;4124771;28;20447;-76
2022/11/26 01:20:30;;;;;;;50.27;23.27;;;5.70;99.90;;;;;;4121690;28;20484;-76
2022/11/26 01:22:35;;;;;;;53.23;23.93;;;5.70;99.90;;;;;;4107365;28;20517;-76
2022/11/26 01:24:37;;;;;;;60.60;26.77;;;5.70;99.90;;;;;;4124188;28;20476;-76
2022/11/26 01:26:42;;;;;;;58.23;25.67;;;5.70;99.90;;;;;;4125354;28;20869;-76
2022/11/26 01:28:45;;;;;;;66.43;26.27;;;5.70;99.90;;;;;;4121377;28;20464;-76
2022/11/26 01:30:47;;;;;;;62.33;26.57;;;5.80;99.90;;;;;;4127937;28;20484;-76
2022/11/26 01:32:49;;;;;;;52.37;24.57;;;5.80;99.90;;;;;;4121916;28;20489;-76
2022/11/26 01:34:52;;;;;;;62.43;26.10;;;5.80;99.90;;;;;;4121726;28;20568;-76
2022/11/26 01:36:54;;;;;;;65.37;26.33;;;5.80;99.90;;;;;;4120061;28;20512;-76
2022/11/26 01:38:58;;;;;;;61.00;25.93;;;5.80;99.90;;;;;;4122706;28;20895;-76
2022/11/26 01:41:11;;;;;;;64.77;24.93;;;5.80;99.90;;;;;;4121766;28;20566;-76
2022/11/26 01:43:22;;;;;;;57.00;23.77;;;5.80;99.90;;;;;;4123796;28;20496;-76
2022/11/26 01:45:24;;;;;;;66.60;25.67;;;5.80;99.90;;;;;;4119912;28;20469;-76
2022/11/26 01:47:28;;;;;;;57.50;22.40;;;5.80;99.90;;;;;;4123761;28;20468;-76
2022/11/26 01:49:32;;;;;;;63.57;25.07;;;5.80;99.90;;;;;;4122433;28;20504;-76
2022/11/26 01:51:35;;;;;;;55.90;23.13;;;5.80;99.90;;;;;;4120669;28;20494;-75
2022/11/26 01:53:49;;;;;;;62.37;24.13;;;5.80;99.90;;;;;;4122331;28;20577;-76
2022/11/26 01:55:55;;;;;;;55.37;23.60;;;5.90;99.90;;;;;;4122194;28;20494;-76
2022/11/26 01:57:57;;;;;;;57.83;23.77;;;5.80;99.90;;;;;;4122563;28;20488;-76
2022/11/26 02:00:01;;;;;;;58.17;23.60;;;5.90;99.90;;;;;;4126375;28;20483;-76
2022/11/26 02:02:03;;;;;;;54.07;22.87;;;5.90;99.90;;;;;;4120737;28;20469;-76
2022/11/26 02:04:12;;;;;;;54.53;22.00;;;5.90;99.90;;;;;;4123044;28;20544;-76
2022/11/26 02:06:19;;;;;;;62.27;25.07;;;5.90;99.90;;;;;;4123585;28;20467;-75
2022/11/26 02:08:24;;;;;;;64.23;25.13;;;5.90;99.90;;;;;;4121928;28;21030;-77
2022/11/26 02:10:26;;;;;;;61.83;25.03;;;5.90;99.90;;;;;;4120766;28;21011;-75
2022/11/26 02:12:29;;;;;;;71.67;25.57;;;6.00;99.90;;;;;;4120434;28;20575;-76
2022/11/26 02:14:35;;;;;;;57.77;24.07;;;6.00;99.90;;;;;;4121991;28;20495;-75
2022/11/26 02:17:10;;;;;;;63.23;23.00;;;6.00;99.90;;;;;;4121959;28;20568;-75
2022/11/26 02:19:46;;;;;;;54.90;24.10;;;6.00;99.90;;;;;;4123895;28;20500;-76
2022/11/26 02:21:56;;;;;;;50.80;21.90;;;6.00;99.90;;;;;;4103113;28;20474;-76
2022/11/26 02:24:33;;;;;;;58.40;22.63;;;6.00;99.90;;;;;;4120582;28;20499;-76
2022/11/26 02:27:16;;;;;;;54.57;21.50;;;6.00;99.90;;;;;;4116769;28;20630;-76
2022/11/26 02:29:28;;;;;;;52.47;20.93;;;6.00;99.90;;;;;;4113805;28;20556;-76
2022/11/26 02:31:40;;;;;;;50.17;20.67;;;6.00;99.90;;;;;;4121746;28;20604;-76
2022/11/26 02:33:48;;;;;;;54.23;20.50;;;5.90;99.90;;;;;;4121195;28;20532;-76
2022/11/26 02:35:55;;;;;;;52.20;20.77;;;6.00;99.90;;;;;;4125743;28;20990;-76
2022/11/26 02:38:01;;;;;;;43.63;18.23;;;6.00;99.90;;;;;;4122619;28;20511;-76
2022/11/26 02:40:04;;;;;;;51.40;19.47;;;6.00;99.90;;;;;;4128694;28;20548;-76
2022/11/26 02:42:25;;;;;;;44.50;19.30;;;6.00;99.90;;;;;;4123332;28;20493;-76
2022/11/26 02:44:36;;;;;;;44.30;18.30;;;6.00;99.90;;;;;;4124269;28;20528;-75
2022/11/26 02:46:41;;;;;;;49.60;19.00;;;6.00;99.90;;;;;;4123167;28;21388;-76
2022/11/26 02:48:48;;;;;;;44.73;17.83;;;6.00;99.90;;;;;;4106829;28;20470;-76
2022/11/26 02:50:53;;;;;;;46.20;17.33;;;6.00;99.90;;;;;;4124796;28;20451;-76
2022/11/26 02:52:58;;;;;;;41.30;16.47;;;5.90;99.90;;;;;;4120331;28;20471;-76
2022/11/26 02:55:01;;;;;;;51.33;17.97;;;6.00;99.90;;;;;;4122954;28;20519;-76
2022/11/26 02:57:06;;;;;;;37.90;16.67;;;5.90;99.90;;;;;;4105473;28;20908;-76
2022/11/26 02:59:09;;;;;;;40.13;17.23;;;6.00;99.90;;;;;;4120753;28;20943;-75
2022/11/26 03:01:13;;;;;;;35.57;16.07;;;6.00;99.90;;;;;;4122444;28;20451;-76
2022/11/26 03:03:24;;;;;;;42.83;15.07;;;6.00;99.90;;;;;;4119984;28;20477;-76
2022/11/26 03:05:30;;;;;;;41.00;15.93;;;6.00;99.90;;;;;;4119922;28;20456;-76
2022/11/26 03:07:34;;;;;;;40.37;15.37;;;6.00;99.90;;;;;;4122676;28;20545;-76
2022/11/26 03:09:41;;;;;;;41.40;14.80;;;6.00;99.90;;;;;;4123509;28;20811;-76
2022/11/26 03:11:43;;;;;;;38.37;15.77;;;6.10;99.90;;;;;;4121511;28;20470;-75
2022/11/26 03:13:44;;;;;;;35.00;15.33;;;6.10;99.90;;;;;;4111956;28;20482;-75
2022/11/26 03:15:46;;;;;;;39.00;15.07;;;6.10;99.90;;;;;;4120250;28;20453;-76
2022/11/26 03:17:48;;;;;;;33.67;15.27;;;6.10;99.90;;;;;;4123077;28;20519;-76
2022/11/26 03:19:52;;;;;;;39.03;16.53;;;6.10;99.90;;;;;;4120352;28;20488;-76
2022/11/26 03:21:54;;;;;;;33.40;14.47;;;6.20;99.90;;;;;;4104276;28;20543;-75
2022/11/26 03:23:55;;;;;;;42.33;15.70;;;6.20;99.90;;;;;;4124384;28;21012;-75
2022/11/26 03:25:57;;;;;;;35.87;14.70;;;6.20;99.90;;;;;;4116593;28;20478;-76
2022/11/26 03:27:59;;;;;;;37.53;16.37;;;6.20;99.90;;;;;;4119780;28;20464;-76
2022/11/26 03:30:02;;;;;;;41.43;15.40;;;6.20;99.90;;;;;;4120677;28;20480;-76
2022/11/26 03:32:04;;;;;;;43.50;15.20;;;6.20;99.90;;;;;;4119174;28;20498;-76
2022/11/26 03:34:06;;;;;;;47.50;15.43;;;6.20;99.90;;;;;;4119376;28;21070;-75
2022/11/26 03:36:10;;;;;;;40.27;15.53;;;6.30;99.90;;;;;;4105879;28;20458;-76
2022/11/26 03:38:12;;;;;;;46.43;16.27;;;6.30;99.90;;;;;;4122064;28;20489;-76
2022/11/26 03:40:15;;;;;;;41.70;15.97;;;6.20;99.90;;;;;;4119846;28;20494;-76
2022/11/26 03:42:17;;;;;;;41.00;15.00;;;6.30;99.90;;;;;;4122376;28;20454;-75
2022/11/26 03:44:19;;;;;;;36.87;15.53;;;6.30;99.90;;;;;;4120624;28;21000;-76
2022/11/26 03:46:21;;;;;;;43.97;15.17;;;6.30;99.90;;;;;;4118954;28;20532;-76
2022/11/26 03:48:23;;;;;;;42.43;15.73;;;6.30;99.90;;;;;;4121555;28;20485;-76
2022/11/26 03:50:25;;;;;;;35.00;14.77;;;6.30;99.90;;;;;;4119761;28;20485;-76
2022/11/26 03:52:28;;;;;;;44.77;16.27;;;6.30;99.90;;;;;;4121382;28;20461;-76
2022/11/26 03:54:30;;;;;;;38.53;15.10;;;6.30;99.90;;;;;;4118741;28;20463;-76
2022/11/26 03:56:32;;;;;;;41.67;16.13;;;6.30;99.90;;;;;;4120626;28;20497;-75
2022/11/26 03:58:37;;;;;;;42.37;16.33;;;6.30;99.90;;;;;;4121964;28;20481;-75
2022/11/26 04:00:39;;;;;;;38.33;15.90;;;6.30;99.90;;;;;;4121744;28;20489;-75
2022/11/26 04:02:41;;;;;;;31.33;14.03;;;6.30;99.90;;;;;;4106409;28;20487;-75
2022/11/26 04:04:43;;;;;;;41.03;17.07;;;6.20;99.90;;;;;;4122986;28;20837;-75
2022/11/26 04:06:45;;;;;;;43.83;16.43;;;6.30;99.90;;;;;;4118897;28;21060;-75
2022/11/26 04:08:48;;;;;;;36.07;15.87;;;6.30;99.90;;;;;;4124710;28;20521;-75
2022/11/26 04:10:53;;;;;;;46.37;18.03;;;6.20;99.90;;;;;;4122281;28;21123;-75
2022/11/26 04:12:55;;;;;;;38.67;16.60;;;6.20;99.90;;;;;;4120574;28;20478;-76
2022/11/26 04:14:57;;;;;;;41.57;15.37;;;6.20;99.90;;;;;;4101225;28;20500;-76
2022/11/26 04:16:58;;;;;;;43.73;16.43;;;6.20;99.90;;;;;;4124820;28;20485;-76
2022/11/26 04:19:00;;;;;;;45.17;17.00;;;6.20;99.90;;;;;;4110435;28;20512;-76
2022/11/26 04:21:05;;;;;;;39.70;17.63;;;6.30;99.90;;;;;;4129293;28;20448;-76
2022/11/26 04:23:06;;;;;;;47.50;17.47;;;6.30;99.90;;;;;;4126699;28;20491;-75
2022/11/26 04:25:10;;;;;;;42.47;16.20;;;6.30;99.90;;;;;;4126446;28;20493;-76
2022/11/26 04:27:12;;;;;;;36.00;15.80;;;6.30;99.90;;;;;;4120756;28;20457;-76
2022/11/26 04:29:14;;;;;;;34.13;16.00;;;6.30;99.90;;;;;;4126751;28;20452;-76
2022/11/26 04:31:16;;;;;;;40.93;16.47;;;6.30;99.90;;;;;;4126549;28;20828;-76
2022/11/26 04:33:18;;;;;;;45.40;17.00;;;6.30;99.90;;;;;;4122472;28;20917;-75
2022/11/26 04:35:21;;;;;;;47.33;17.47;;;6.30;99.90;;;;;;4125768;28;20561;-75
2022/11/26 04:37:23;;;;;;;41.43;16.87;;;6.30;99.90;;;;;;4104073;28;20834;-75
2022/11/26 04:39:25;;;;;;;37.83;16.30;;;6.30;99.90;;;;;;4125186;28;20485;-75
2022/11/26 04:41:28;;;;;;;39.47;16.73;;;6.30;99.90;;;;;;4127626;28;20516;-75
2022/11/26 04:43:30;;;;;;;41.30;16.20;;;6.30;99.90;;;;;;4123824;28;20541;-76
2022/11/26 04:45:35;;;;;;;37.07;15.70;;;6.40;99.90;;;;;;4126368;28;20460;-75
2022/11/26 04:47:37;;;;;;;46.33;16.93;;;6.30;99.90;;;;;;4128387;28;20456;-76
2022/11/26 04:49:39;;;;;;;43.83;18.03;;;6.40;99.90;;;;;;4127271;28;20441;-77
2022/11/26 04:51:41;;;;;;;44.53;16.83;;;6.40;99.90;;;;;;4124204;28;20464;-76
2022/11/26 04:53:42;;;;;;;40.67;16.47;;;6.40;99.90;;;;;;4106377;28;20490;-75
2022/11/26 04:55:44;;;;;;;37.90;16.50;;;6.40;99.90;;;;;;4126463;28;20461;-76
2022/11/26 04:57:48;;;;;;;39.07;17.73;;;6.30;99.90;;;;;;4125476;28;20467;-76
2022/11/26 04:59:50;;;;;;;35.70;15.70;;;6.30;99.90;;;;;;4125451;28;20453;-76
2022/11/26 05:01:52;;;;;;;40.67;16.27;;;6.30;99.90;;;;;;4108164;28;20513;-76
2022/11/26 05:03:54;;;;;;;41.13;17.07;;;6.30;99.90;;;;;;4126375;28;20514;-75
2022/11/26 05:05:56;;;;;;;46.90;17.50;;;6.30;99.90;;;;;;4125130;28;20542;-76
2022/11/26 05:07:58;;;;;;;37.53;16.43;;;6.30;99.90;;;;;;4125953;28;20455;-77
2022/11/26 05:10:00;;;;;;;42.03;16.70;;;6.30;99.90;;;;;;4126509;28;20517;-76
2022/11/26 05:12:02;;;;;;;46.97;17.23;;;6.30;99.90;;;;;;4125095;28;20455;-75
2022/11/26 05:14:05;;;;;;;39.20;17.20;;;6.30;99.90;;;;;;4113579;28;20472;-76
2022/11/26 05:16:07;;;;;;;42.80;17.20;;;6.30;99.90;;;;;;4125990;28;20903;-76
2022/11/26 05:18:09;;;;;;;57.03;18.03;;;6.30;99.90;;;;;;4126734;28;20489;-76
2022/11/26 05:20:13;;;;;;;41.07;16.83;;;6.20;99.90;;;;;;4121346;28;20541;-76
2022/11/26 05:22:15;;;;;;;39.90;16.57;;;6.20;99.90;;;;;;4122855;28;20493;-76
2022/11/26 05:24:19;;;;;;;39.23;16.03;;;6.20;99.90;;;;;;4123192;28;20497;-76
2022/11/26 05:26:21;;;;;;;39.70;16.50;;;6.20;99.90;;;;;;4119308;28;20469;-76
2022/11/26 05:28:23;;;;;;;45.83;18.00;;;6.10;99.90;;;;;;4119494;28;20500;-75
2022/11/26 05:30:27;;;;;;;37.40;16.30;;;6.20;99.90;;;;;;4122845;28;20871;-76
2022/11/26 05:32:28;;;;;;;46.47;18.07;;;6.10;99.90;;;;;;4122762;28;20544;-75
2022/11/26 05:34:31;;;;;;;38.57;16.63;;;6.10;99.90;;;;;;4122780;28;20456;-75
2022/11/26 05:36:33;;;;;;;41.90;16.53;;;6.10;99.90;;;;;;4120588;28;20495;-76
2022/11/26 05:38:35;;;;;;;37.73;16.27;;;6.00;99.90;;;;;;4120963;28;20483;-76
2022/11/26 05:40:37;;;;;;;42.60;16.87;;;6.00;99.90;;;;;;4121734;28;20489;-75
2022/11/26 05:42:39;;;;;;;41.40;18.17;;;6.00;99.90;;;;;;4124157;28;20528;-76
2022/11/26 05:44:41;;;;;;;46.60;17.40;;;6.00;99.90;;;;;;4120740;28;20485;-75
2022/11/26 05:46:44;;;;;;;40.10;17.33;;;6.00;99.90;;;;;;4120065;28;20527;-76
2022/11/26 05:48:46;;;;;;;46.40;18.23;;;5.90;99.90;;;;;;4107955;28;20452;-76
2022/11/26 05:50:48;;;;;;;48.10;17.23;;;5.90;99.90;;;;;;4121710;28;20461;-76
2022/11/26 05:52:50;;;;;;;44.27;18.00;;;5.90;99.90;;;;;;4108289;28;20486;-75
2022/11/26 05:54:52;;;;;;;42.93;17.27;;;5.90;99.90;;;;;;4123491;28;21060;-75
2022/11/26 05:56:54;;;;;;;50.20;17.77;;;5.90;99.90;;;;;;4113838;28;20454;-76
2022/11/26 05:58:56;;;;;;;49.90;17.73;;;5.80;99.90;;;;;;4108570;28;20538;-76
2022/11/26 06:00:58;;;;;;;42.47;17.30;;;5.80;99.90;;;;;;4118504;28;20483;-75
2022/11/26 06:03:01;;;;;;;43.53;16.97;;;5.80;99.90;;;;;;4121274;28;20470;-76
2022/11/26 06:05:04;;;;;;;49.77;18.00;;;5.80;99.90;;;;;;4120454;28;20497;-76
2022/11/26 06:07:06;;;;;;;43.17;17.97;;;5.80;99.90;;;;;;4122007;28;20456;-75
2022/11/26 06:09:08;;;;;;;42.50;17.90;;;5.80;99.90;;;;;;4124058;28;20540;-75
2022/11/26 06:11:11;;;;;;;49.80;17.60;;;5.80;99.90;;;;;;4116672;28;20474;-75
2022/11/26 06:13:13;;;;;;;49.63;18.43;;;5.80;99.90;;;;;;4123049;28;20499;-76
2022/11/26 06:15:15;;;;;;;51.03;19.10;;;5.70;99.90;;;;;;4108963;28;20983;-75
2022/11/26 06:17:17;;;;;;;54.03;19.50;;;5.70;99.90;;;;;;4120126;28;20461;-76
2022/11/26 06:19:20;;;;;;;41.00;17.30;;;5.70;99.90;;;;;;4120444;28;20518;-75
2022/11/26 06:21:22;;;;;;;53.97;19.73;;;5.70;99.90;;;;;;4122682;28;20890;-75
2022/11/26 06:23:24;;;;;;;58.73;19.60;;;5.70;99.90;;;;;;4121113;28;20470;-76
2022/11/26 06:25:26;;;;;;;52.00;20.57;;;5.70;99.90;;;;;;4119455;28;20548;-76
2022/11/26 06:27:28;;;;;;;52.03;19.70;;;5.70;99.90;;;;;;4107927;28;20496;-75
2022/11/26 06:29:30;;;;;;;46.03;18.20;;;5.70;99.90;;;;;;4123268;28;20487;-76
2022/11/26 06:31:32;;;;;;;50.73;19.07;;;5.60;99.90;;;;;;4121142;28;20463;-76
2022/11/26 06:33:37;;;;;;;64.97;20.93;;;5.60;99.90;;;;;;4107958;28;20528;-75
2022/11/26 06:35:41;;;;;;;51.70;20.17;;;5.60;99.90;;;;;;4104648;28;20481;-76
2022/11/26 06:37:43;;;;;;;54.93;20.73;;;5.60;99.90;;;;;;4110127;28;20480;-76
2022/11/26 06:39:45;;;;;;;47.87;19.53;;;5.60;99.90;;;;;;4103658;28;20483;-76
2022/11/26 06:41:47;;;;;;;60.13;21.50;;;5.60;99.90;;;;;;4101100;28;20822;-75
2022/11/26 06:43:49;;;;;;;49.10;19.93;;;5.60;99.90;;;;;;4118536;28;20488;-75
2022/11/26 06:45:52;;;;;;;42.90;19.40;;;5.60;99.90;;;;;;4117642;28;20466;-75
2022/11/26 06:47:54;;;;;;;53.97;20.30;;;5.60;99.90;;;;;;4116979;28;20572;-75
2022/11/26 06:49:56;;;;;;;47.77;20.50;;;5.60;99.90;;;;;;4103273;28;20465;-75
2022/11/26 06:51:59;;;;;;;43.80;19.23;;;5.60;99.90;;;;;;4114997;28;21028;-76
2022/11/26 06:54:02;;;;;;;57.07;22.03;;;5.60;99.90;;;;;;4119650;28;20460;-76
2022/11/26 06:56:06;;;;;;;46.20;19.77;;;5.60;99.90;;;;;;4116205;28;20448;-75
2022/11/26 06:58:08;;;;;;;50.03;20.37;;;5.60;99.90;;;;;;4117208;28;20464;-75
2022/11/26 07:00:11;;;;;;;60.50;21.53;;;5.60;99.90;;;;;;4119823;28;20496;-75
2022/11/26 07:02:13;;;;;;;52.57;21.37;;;5.50;99.90;;;;;;4101899;28;20460;-75
2022/11/26 07:04:15;;;;;;;49.87;20.07;;;5.50;99.90;;;;;;4116855;28;20464;-75
2022/11/26 07:06:18;;;;;;;56.27;20.90;;;5.50;99.90;;;;;;4119453;28;20456;-75
2022/11/26 07:08:21;;;;;;;69.87;25.23;;;5.50;99.90;;;;;;4102162;28;21054;-75
2022/11/26 07:10:23;;;;;;;54.87;21.80;;;5.50;99.90;;;;;;4118148;28;20457;-75
2022/11/26 07:12:26;;;;;;;52.30;22.47;;;5.50;99.90;;;;;;4117633;28;21060;-76
2022/11/26 07:14:31;;;;;;;54.50;21.83;;;5.50;99.90;;;;;;4104757;28;20508;-75
2022/11/26 07:16:33;;;;;;;47.60;21.23;;;5.50;99.90;;;;;;4098726;28;20458;-76
2022/11/26 07:18:35;;;;;;;55.73;21.13;;;5.50;99.90;;;;;;4121352;28;20895;-76
2022/11/26 07:20:42;;;;;;;54.30;23.50;;;5.40;99.90;;;;;;4099573;28;20494;-77
2022/11/26 07:22:44;;;;;;;50.80;22.60;;;5.40;99.90;;;;;;4100578;28;20512;-75
2022/11/26 07:24:47;;;;;;;49.50;21.90;;;5.40;99.90;;;;;;4119760;28;21131;-75
2022/11/26 07:26:49;;;;;;;56.93;23.47;;;5.40;99.90;;;;;;4119942;28;20905;-76
2022/11/26 07:28:51;;;;;;;83.13;32.07;;;5.40;99.90;;;;;;4118667;28;20500;-76
2022/11/26 07:30:53;;;;;;;71.47;29.90;;;5.40;99.90;;;;;;4118383;28;20464;-75
2022/11/26 07:32:55;;;;;;;63.40;25.10;;;5.40;99.90;;;;;;4116497;28;20574;-75
2022/11/26 07:34:57;;;;;;;68.30;26.30;;;5.40;99.90;;;;;;4118872;28;20827;-75
2022/11/26 07:37:02;;;;;;;48.53;22.40;;;5.40;99.90;;;;;;4116961;28;20484;-76
2022/11/26 07:39:04;;;;;;;51.27;22.83;;;5.40;99.90;;;;;;4117456;28;20508;-76
2022/11/26 07:41:09;;;;;;;55.40;21.73;;;5.40;99.90;;;;;;4118908;28;20456;-75
2022/11/26 07:43:10;;;;;;;44.83;20.43;;;5.40;99.90;;;;;;4118771;28;20519;-76
2022/11/26 07:45:12;;;;;;;73.00;24.20;;;5.40;99.90;;;;;;4116277;28;20497;-75
2022/11/26 07:47:14;;;;;;;48.90;21.67;;;5.40;99.90;;;;;;4105608;28;21005;-76
2022/11/26 07:49:16;;;;;;;47.47;19.60;;;5.40;99.90;;;;;;4121446;28;20812;-75
2022/11/26 07:51:20;;;;;;;45.50;20.10;;;5.40;99.90;;;;;;4119295;28;20490;-75
2022/11/26 07:53:22;;;;;;;57.27;19.93;;;5.40;99.90;;;;;;4119952;28;21006;-75
2022/11/26 07:55:24;;;;;;;58.63;21.07;;;5.40;99.90;;;;;;4101632;28;20469;-76
2022/11/26 07:57:27;;;;;;;58.53;20.17;;;5.40;99.90;;;;;;4118501;28;20529;-76
2022/11/26 07:59:32;;;;;;;50.73;18.67;;;5.40;99.90;;;;;;4117655;28;20943;-76
2022/11/26 08:01:34;;;;;;;40.87;18.73;;;5.40;99.90;;;;;;4120443;28;20452;-75
2022/11/26 08:03:39;;;;;;;50.63;18.73;;;5.40;99.90;;;;;;4117659;28;20539;-76
2022/11/26 08:05:41;;;;;;;50.50;19.60;;;5.40;99.90;;;;;;4110050;28;20607;-76
2022/11/26 08:07:43;;;;;;;47.53;17.93;;;5.40;99.90;;;;;;4120895;28;20480;-75
2022/11/26 08:09:46;;;;;;;57.93;19.33;;;5.40;99.90;;;;;;4121376;28;20477;-76
2022/11/26 08:11:48;;;;;;;59.67;19.33;;;5.40;99.90;;;;;;4119685;28;20453;-76
2022/11/26 08:13:55;;;;;;;54.93;20.80;;;5.40;99.90;;;;;;4119531;28;20477;-75
2022/11/26 08:15:57;;;;;;;50.63;20.17;;;5.40;99.90;;;;;;4119835;28;20499;-75
2022/11/26 08:17:59;;;;;;;68.13;21.73;;;5.40;99.90;;;;;;4123542;28;20511;-76
2022/11/26 08:20:01;;;;;;;51.40;20.47;;;5.40;99.90;;;;;;4100122;28;20478;-75
2022/11/26 08:22:02;;;;;;;53.73;18.40;;;5.40;99.90;;;;;;4114528;28;21023;-76
2022/11/26 08:24:08;;;;;;;60.63;19.57;;;5.50;99.90;;;;;;4104981;28;20457;-76
2022/11/26 08:26:12;;;;;;;46.17;18.90;;;5.50;99.90;;;;;;4118387;28;20468;-76
2022/11/26 08:28:15;;;;;;;53.20;19.20;;;5.50;99.90;;;;;;4101424;28;20463;-76
2022/11/26 08:30:19;;;;;;;52.13;19.40;;;5.60;99.90;;;;;;4121629;28;20473;-75
2022/11/26 08:32:21;;;;;;;73.27;20.23;;;5.60;99.90;;;;;;4104285;28;20485;-75
2022/11/26 08:34:23;;;;;;;51.63;18.67;;;5.70;99.90;;;;;;4119756;28;20503;-75
2022/11/26 08:36:25;;;;;;;61.67;18.43;;;5.70;99.90;;;;;;4120556;28;20520;-75
2022/11/26 08:38:28;;;;;;;63.63;18.53;;;5.70;99.90;;;;;;4124163;28;20472;-76
2022/11/26 08:40:30;;;;;;;55.67;19.63;;;5.80;99.90;;;;;;4119577;28;20504;-76
2022/11/26 08:42:34;;;;;;;53.03;19.00;;;5.80;99.90;;;;;;4104067;28;20489;-76
2022/11/26 08:44:36;;;;;;;49.87;17.77;;;5.80;99.90;;;;;;4119076;28;21254;-76
2022/11/26 08:46:41;;;;;;;49.50;17.60;;;5.80;99.90;;;;;;4101889;28;20493;-75
2022/11/26 08:48:44;;;;;;;38.17;16.33;;;5.90;99.90;;;;;;4113859;28;20467;-75
2022/11/26 08:50:46;;;;;;;52.33;17.77;;;5.80;99.90;;;;;;4120983;28;20546;-75
2022/11/26 08:52:48;;;;;;;48.27;17.60;;;5.90;99.90;;;;;;4120009;28;20500;-76
2022/11/26 08:54:50;;;;;;;48.60;18.17;;;5.90;99.90;;;;;;4116388;28;21119;-75
2022/11/26 08:56:52;;;;;;;52.10;18.20;;;5.90;99.90;;;;;;4114545;28;20450;-76
2022/11/26 08:58:54;;;;;;;51.67;17.70;;;5.90;99.90;;;;;;4120317;28;20470;-76
2022/11/26 09:00:56;;;;;;;49.10;17.33;;;5.90;99.90;;;;;;4120814;28;20540;-76
2022/11/26 09:03:02;;;;;;;46.67;17.17;;;6.00;99.90;;;;;;4111549;28;20864;-75
2022/11/26 09:05:05;;;;;;;57.23;17.73;;;6.00;99.90;;;;;;4123917;28;20450;-75
2022/11/26 09:07:09;;;;;;;50.83;17.13;;;5.90;99.90;;;;;;4105661;28;20465;-76
2022/11/26 09:09:14;;;;;;;51.50;18.60;;;6.00;99.90;;;;;;4126946;28;20877;-76
2022/11/26 09:11:15;;;;;;;53.73;15.27;;;6.00;99.90;;;;;;4123502;28;20519;-77
2022/11/26 09:13:20;;;;;;;37.87;14.97;;;6.00;99.90;;;;;;4113826;28;20520;-77
2022/11/26 09:15:22;;;;;;;50.30;16.23;;;6.10;99.90;;;;;;4113989;28;20543;-76
2022/11/26 09:17:24;;;;;;;45.57;16.10;;;6.10;99.90;;;;;;4124446;28;20699;-76
2022/11/26 09:19:28;;;;;;;41.60;14.80;;;6.20;99.90;;;;;;4123634;28;20484;-76
2022/11/26 09:21:30;;;;;;;49.10;15.23;;;6.30;99.90;;;;;;4124526;28;20468;-78
2022/11/26 09:23:32;;;;;;;45.57;13.97;;;6.30;99.90;;;;;;4111253;28;20493;-76
2022/11/26 09:25:38;;;;;;;49.63;13.33;;;6.40;99.90;;;;;;4108546;28;21028;-76
2022/11/26 09:27:41;;;;;;;38.37;12.73;;;6.40;99.90;;;;;;4125342;28;20466;-77
2022/11/26 09:29:42;;;;;;;37.23;13.37;;;6.50;99.90;;;;;;4107772;28;20839;-76
2022/11/26 09:31:45;;;;;;;28.80;11.70;;;6.60;99.90;;;;;;4112833;28;20463;-76
2022/11/26 09:33:47;;;;;;;32.60;11.70;;;6.60;99.90;;;;;;4122376;28;21179;-77
2022/11/26 09:35:55;;;;;;;42.73;12.07;;;6.70;99.90;;;;;;4107625;28;20462;-75
2022/11/26 09:37:58;;;;;;;40.87;11.53;;;6.70;99.90;;;;;;4123694;28;20476;-75
2022/11/26 09:40:03;;;;;;;29.67;10.33;;;6.70;99.90;;;;;;4118162;28;20568;-74
2022/11/26 09:42:08;;;;;;;31.73;11.40;;;6.80;99.90;;;;;;4106862;28;20470;-75
2022/11/26 09:44:29;;;;;;;29.60;11.30;;;6.80;99.90;;;;;;4112924;28;20464;-77
2022/11/26 09:46:40;;;;;;;33.50;10.77;;;6.90;99.90;;;;;;4109684;28;20534;-78
2022/11/26 09:48:42;;;;;;;27.37;10.40;;;6.90;99.90;;;;;;4114851;28;20484;-75
2022/11/26 09:50:47;;;;;;;25.23;9.77;;;7.00;99.90;;;;;;4122677;28;20462;-75
2022/11/26 09:52:56;;;;;;;27.63;10.00;;;7.10;99.90;;;;;;4122929;28;20483;-77
2022/11/26 09:55:08;;;;;;;31.30;10.73;;;7.10;99.90;;;;;;4124228;28;20474;-75
2022/11/26 09:57:20;;;;;;;29.67;9.33;;;7.10;99.90;;;;;;4121253;28;20522;-78
2022/11/26 09:59:24;;;;;;;24.47;10.03;;;7.20;99.90;;;;;;4112346;28;20495;-76
2022/11/26 10:01:26;;;;;;;27.37;9.60;;;7.20;99.90;;;;;;4124480;28;20471;-75
2022/11/26 10:03:33;;;;;;;30.37;9.03;;;7.20;99.90;;;;;;4119177;28;20478;-78
2022/11/26 10:05:44;;;;;;;24.80;8.80;;;7.20;99.90;;;;;;4125915;28;20836;-77
2022/11/26 10:07:59;;;;;;;27.00;8.60;;;7.20;99.90;;;;;;4122361;28;21020;-76
2022/11/26 10:10:09;;;;;;;23.77;8.90;;;7.30;99.90;;;;;;4124219;28;21049;-77
2022/11/26 10:12:24;;;;;;;23.70;8.83;;;7.30;99.90;;;;;;4122925;28;20486;-77
2022/11/26 10:14:38;;;;;;;24.27;8.20;;;7.30;99.90;;;;;;4125495;28;20526;-75
2022/11/26 10:16:46;;;;;;;29.43;8.60;;;7.40;99.90;;;;;;4120185;28;20459;-76
2022/11/26 10:19:00;;;;;;;20.13;8.33;;;7.40;99.90;;;;;;4122880;28;20462;-77
2022/11/26 10:21:13;;;;;;;29.97;8.17;;;7.40;99.90;;;;;;4120599;28;20575;-73
2022/11/26 10:23:28;;;;;;;19.10;8.40;;;7.50;99.90;;;;;;4122370;28;20847;-77
2022/11/26 10:25:38;;;;;;;21.33;7.53;;;7.50;99.90;;;;;;4121049;28;20824;-78
2022/11/26 10:27:41;;;;;;;28.27;8.10;;;7.50;99.90;;;;;;4112326;28;20923;-76
2022/11/26 10:29:46;;;;;;;21.33;8.60;;;7.60;99.90;;;;;;4120608;28;20464;-76
2022/11/26 10:31:49;;;;;;;26.03;8.07;;;7.70;99.90;;;;;;4120362;28;20464;-76
2022/11/26 10:33:55;;;;;;;18.53;7.67;;;7.60;99.90;;;;;;4117962;28;20480;-77
2022/11/26 10:35:57;;;;;;;24.10;7.90;;;7.70;99.90;;;;;;4121467;28;20542;-80
2022/11/26 10:37:59;;;;;;;17.83;7.23;;;7.70;99.90;;;;;;4121955;28;20463;-76
2022/11/26 10:40:19;;;;;;;22.70;8.17;;;7.70;99.90;;;;;;4120172;28;20518;-75